createdAt,value
2018-03-17T00:00:41.286Z,97.40
2018-03-17T00:03:10.432Z,97.40
2018-03-17T00:05:39.060Z,97.40
2018-03-17T00:08:09.008Z,97.10
2018-03-17T00:10:37.404Z,97.00
2018-03-17T00:13:06.626Z,97.10
2018-03-17T00:15:36.604Z,97.10
2018-03-17T00:18:05.946Z,97.00
2018-03-17T00:20:34.168Z,97.00
2018-03-17T00:23:04.270Z,96.70
2018-03-17T00:25:33.622Z,96.70
2018-03-17T00:28:04.151Z,96.80
2018-03-17T00:30:33.379Z,96.70
2018-03-17T00:33:02.879Z,96.70
2018-03-17T00:35:31.145Z,96.90
2018-03-17T00:37:59.425Z,97.20
2018-03-17T00:40:28.017Z,97.00
2018-03-17T00:42:56.351Z,97.10
2018-03-17T00:45:24.667Z,97.10
2018-03-17T00:47:53.704Z,96.90
2018-03-17T00:50:22.697Z,96.80
2018-03-17T00:52:50.977Z,96.80
2018-03-17T00:55:19.245Z,96.80
2018-03-17T00:57:47.699Z,97.00
2018-03-17T01:00:15.961Z,96.90
2018-03-17T01:02:45.219Z,96.80
2018-03-17T01:05:13.614Z,96.70
2018-03-17T01:07:42.838Z,96.60
2018-03-17T01:10:11.219Z,96.40
2018-03-17T01:12:39.593Z,96.00
2018-03-17T01:15:07.905Z,96.10
2018-03-17T01:17:37.088Z,95.80
2018-03-17T01:20:05.320Z,95.80
2018-03-17T01:22:39.074Z,95.60
2018-03-17T01:25:21.783Z,95.40
2018-03-17T01:27:54.054Z,95.80
2018-03-17T01:30:39.053Z,95.20
2018-03-17T01:33:17.246Z,95.20
2018-03-17T01:35:47.308Z,95.20
2018-03-17T01:38:16.374Z,95.20
2018-03-17T01:40:46.346Z,95.10
2018-03-17T01:43:15.930Z,95.10
2018-03-17T01:45:45.176Z,95.20
2018-03-17T01:48:14.250Z,94.50
2018-03-17T01:50:44.191Z,94.50
2018-03-17T01:53:12.604Z,94.40
2018-03-17T01:55:41.550Z,94.20
2018-03-17T01:58:10.022Z,94.10
2018-03-17T02:00:39.568Z,94.00
2018-03-17T02:03:07.772Z,93.70
2018-03-17T02:05:36.796Z,94.40
2018-03-17T02:08:05.032Z,94.70
2018-03-17T02:10:33.282Z,94.40
2018-03-17T02:13:01.548Z,94.40
2018-03-17T02:15:29.928Z,94.30
2018-03-17T02:18:00.667Z,93.90
2018-03-17T02:20:29.046Z,94.00
2018-03-17T02:22:59.295Z,93.80
2018-03-17T02:25:27.763Z,94.10
2018-03-17T02:27:55.988Z,93.90
2018-03-17T02:30:25.436Z,93.50
2018-03-17T02:32:53.731Z,93.40
2018-03-17T02:35:22.651Z,93.40
2018-03-17T02:37:52.300Z,93.80
2018-03-17T02:40:20.542Z,94.10
2018-03-17T02:42:49.796Z,93.40
2018-03-17T02:45:18.082Z,93.40
2018-03-17T02:47:47.165Z,93.10
2018-03-17T02:50:15.556Z,93.10
2018-03-17T02:52:44.031Z,93.20
2018-03-17T02:55:13.753Z,93.40
2018-03-17T02:57:43.484Z,93.50
2018-03-17T03:00:13.740Z,93.60
2018-03-17T03:02:42.755Z,93.80
2018-03-17T03:05:11.053Z,93.70
2018-03-17T03:07:39.300Z,93.10
2018-03-17T03:10:07.916Z,93.40
2018-03-17T03:12:37.165Z,93.40
2018-03-17T03:15:06.690Z,93.40
2018-03-17T03:17:36.619Z,92.90
2018-03-17T03:20:05.019Z,93.20
2018-03-17T03:22:33.275Z,93.10
2018-03-17T03:25:01.732Z,93.10
2018-03-17T03:27:30.750Z,93.40
2018-03-17T03:29:58.965Z,93.40
2018-03-17T03:32:27.214Z,93.30
2018-03-17T03:34:55.485Z,93.30
2018-03-17T03:37:23.735Z,93.70
2018-03-17T03:39:52.713Z,94.00
2018-03-17T03:42:21.017Z,94.00
2018-03-17T03:44:50.266Z,94.50
2018-03-17T03:47:18.594Z,93.70
2018-03-17T03:49:46.869Z,93.00
2018-03-17T03:52:15.860Z,93.30
2018-03-17T03:54:44.084Z,93.30
2018-03-17T03:57:12.404Z,93.50
2018-03-17T03:59:40.732Z,93.70
2018-03-17T04:02:09.051Z,93.80
2018-03-17T04:04:37.253Z,93.70
2018-03-17T04:07:06.392Z,94.40
2018-03-17T04:09:34.621Z,94.40
2018-03-17T04:12:03.602Z,94.60
2018-03-17T04:14:33.702Z,94.60
2018-03-17T04:17:01.931Z,94.60
2018-03-17T04:19:30.753Z,95.00
2018-03-17T04:21:59.012Z,95.50
2018-03-17T04:24:27.285Z,95.80
2018-03-17T04:26:55.534Z,95.80
2018-03-17T04:29:24.578Z,95.60
2018-03-17T04:31:52.860Z,95.70
2018-03-17T04:34:21.954Z,96.10
2018-03-17T04:36:51.144Z,96.10
2018-03-17T04:39:19.548Z,96.30
2018-03-17T04:41:47.789Z,96.60
2018-03-17T04:44:16.307Z,96.80
2018-03-17T04:46:44.790Z,96.90
2018-03-17T04:49:13.037Z,97.10
2018-03-17T04:51:41.418Z,97.30
2018-03-17T04:54:09.634Z,97.40
2018-03-17T04:56:39.398Z,97.40
2018-03-17T04:59:07.639Z,97.40
2018-03-17T05:01:37.167Z,97.50
2018-03-17T05:04:05.487Z,97.50
2018-03-17T05:06:33.709Z,97.30
2018-03-17T05:09:02.746Z,96.50
2018-03-17T05:11:31.125Z,96.50
2018-03-17T05:13:59.367Z,96.10
2018-03-17T05:16:27.627Z,96.80
2018-03-17T05:18:56.673Z,97.40
2018-03-17T05:21:24.980Z,97.40
2018-03-17T05:23:53.347Z,97.60
2018-03-17T05:26:23.272Z,98.00
2018-03-17T05:28:51.542Z,98.20
2018-03-17T05:31:19.767Z,98.30
2018-03-17T05:33:48.756Z,98.70
2018-03-17T05:36:17.297Z,98.70
2018-03-17T05:38:45.562Z,99.10
2018-03-17T05:41:13.944Z,98.90
2018-03-17T05:43:43.345Z,98.90
2018-03-17T05:46:12.849Z,98.70
2018-03-17T05:48:41.324Z,98.70
2018-03-17T05:51:10.905Z,98.90
2018-03-17T05:53:39.280Z,99.00
2018-03-17T05:56:08.308Z,98.90
2018-03-17T05:58:38.146Z,99.00
2018-03-17T06:01:07.333Z,98.50
2018-03-17T06:03:35.574Z,98.50
2018-03-17T06:06:03.839Z,98.90
2018-03-17T06:08:33.120Z,98.60
2018-03-17T06:11:02.108Z,98.60
2018-03-17T06:13:30.482Z,98.70
2018-03-17T06:15:58.939Z,98.70
2018-03-17T06:18:27.323Z,98.80
2018-03-17T06:20:55.654Z,98.70
2018-03-17T06:23:25.820Z,98.30
2018-03-17T06:25:54.204Z,98.60
2018-03-17T06:28:23.371Z,97.80
2018-03-17T06:30:51.580Z,97.80
2018-03-17T06:33:21.531Z,97.60
2018-03-17T06:35:49.741Z,97.70
2018-03-17T06:38:18.045Z,97.60
2018-03-17T06:40:46.270Z,97.60
2018-03-17T06:43:15.433Z,97.40
2018-03-17T06:45:43.694Z,97.30
2018-03-17T06:48:11.988Z,97.10
2018-03-17T06:50:40.268Z,97.40
2018-03-17T06:53:09.268Z,96.90
2018-03-17T06:55:38.443Z,96.70
2018-03-17T06:58:06.671Z,97.30
2018-03-17T07:00:35.675Z,96.70
2018-03-17T07:03:04.105Z,96.70
2018-03-17T07:05:33.239Z,96.80
2018-03-17T07:08:01.514Z,96.80
2018-03-17T07:10:29.778Z,96.30
2018-03-17T07:12:58.050Z,96.10
2018-03-17T07:15:26.323Z,96.40
2018-03-17T07:17:54.614Z,96.30
2018-03-17T07:20:22.893Z,95.80
2018-03-17T07:22:52.061Z,96.30
2018-03-17T07:25:20.361Z,96.00
2018-03-17T07:27:49.377Z,95.60
2018-03-17T07:30:18.435Z,95.70
2018-03-17T07:32:46.703Z,95.60
2018-03-17T07:35:15.081Z,96.50
2018-03-17T07:37:43.495Z,95.60
2018-03-17T07:40:12.591Z,95.50
2018-03-17T07:42:42.447Z,95.70
2018-03-17T07:45:11.975Z,95.20
2018-03-17T07:50:38.873Z,94.90
2018-03-17T07:53:07.435Z,94.10
2018-03-17T07:55:35.687Z,94.00
2018-03-17T07:58:04.094Z,93.20
2018-03-17T08:00:32.374Z,93.20
2018-03-17T08:03:00.639Z,93.80
2018-03-17T08:05:28.875Z,93.80
2018-03-17T08:07:57.947Z,94.20
2018-03-17T08:10:26.320Z,94.20
2018-03-17T08:12:54.673Z,94.50
2018-03-17T08:15:23.050Z,94.20
2018-03-17T08:17:52.164Z,94.30
2018-03-17T08:20:20.481Z,94.20
2018-03-17T08:22:49.625Z,93.80
2018-03-17T08:25:18.047Z,93.60
2018-03-17T08:27:46.980Z,93.80
2018-03-17T08:30:15.225Z,93.60
2018-03-17T08:32:44.374Z,93.30
2018-03-17T08:35:12.855Z,93.60
2018-03-17T08:37:41.242Z,93.90
2018-03-17T08:40:09.655Z,93.30
2018-03-17T08:42:38.987Z,93.60
2018-03-17T08:45:07.994Z,93.10
2018-03-17T08:47:36.328Z,93.10
2018-03-17T08:50:04.666Z,93.30
2018-03-17T08:52:32.957Z,93.10
2018-03-17T08:55:01.240Z,93.00
2018-03-17T08:57:29.494Z,93.60
2018-03-17T08:59:58.086Z,93.30
2018-03-17T09:02:26.330Z,93.70
2018-03-17T09:04:55.346Z,93.00
2018-03-17T09:07:24.294Z,93.30
2018-03-17T09:09:52.531Z,93.30
2018-03-17T09:12:21.728Z,93.10
2018-03-17T09:14:49.980Z,93.10
2018-03-17T09:17:18.294Z,93.20
2018-03-17T09:19:46.534Z,92.90
2018-03-17T09:22:21.448Z,93.40
2018-03-17T09:24:49.959Z,93.70
2018-03-17T09:27:18.318Z,93.60
2018-03-17T09:29:46.556Z,93.10
2018-03-17T09:32:14.771Z,93.00
2018-03-17T09:34:43.794Z,93.50
2018-03-17T09:37:13.238Z,93.10
2018-03-17T09:39:41.520Z,93.10
2018-03-17T09:42:09.886Z,93.60
2018-03-17T09:44:38.161Z,92.90
2018-03-17T09:47:06.407Z,92.80
2018-03-17T09:49:34.657Z,93.10
2018-03-17T09:52:03.841Z,93.60
2018-03-17T09:54:32.306Z,93.50
2018-03-17T09:57:00.538Z,93.00
2018-03-17T09:59:28.947Z,93.60
2018-03-17T10:01:58.008Z,93.80
2018-03-17T10:04:26.409Z,93.80
2018-03-17T10:06:54.674Z,93.90
2018-03-17T10:09:22.961Z,93.80
2018-03-17T10:11:51.197Z,94.30
2018-03-17T10:14:21.256Z,94.40
2018-03-17T10:16:49.540Z,94.40
2018-03-17T10:19:18.000Z,94.40
2018-03-17T10:21:46.222Z,94.50
2018-03-17T10:24:14.914Z,94.60
2018-03-17T10:26:43.177Z,94.90
2018-03-17T10:29:11.443Z,94.80
2018-03-17T10:31:39.991Z,95.00
2018-03-17T10:34:09.155Z,94.70
2018-03-17T10:36:38.030Z,94.80
2018-03-17T10:39:06.315Z,94.80
2018-03-17T10:41:35.443Z,94.90
2018-03-17T10:44:06.367Z,94.90
2018-03-17T10:46:35.437Z,95.20
2018-03-17T10:49:03.890Z,95.20
2018-03-17T10:51:32.303Z,95.20
2018-03-17T10:54:00.620Z,95.00
2018-03-17T10:56:28.919Z,95.00
2018-03-17T10:58:57.302Z,95.30
2018-03-17T11:01:25.599Z,94.60
2018-03-17T11:03:54.042Z,95.00
2018-03-17T11:06:22.291Z,95.20
2018-03-17T11:08:50.534Z,94.70
2018-03-17T11:11:18.849Z,94.60
2018-03-17T11:13:47.145Z,94.50
2018-03-17T11:16:16.344Z,95.10
2018-03-17T11:18:44.639Z,95.10
2018-03-17T11:21:13.151Z,94.80
2018-03-17T11:23:41.386Z,94.20
2018-03-17T11:26:10.387Z,94.30
2018-03-17T11:28:38.641Z,94.30
2018-03-17T11:31:07.229Z,94.70
2018-03-17T11:33:36.388Z,94.10
2018-03-17T11:36:05.638Z,94.10
2018-03-17T11:38:34.779Z,94.10
2018-03-17T11:41:03.802Z,94.20
2018-03-17T11:43:32.170Z,93.90
2018-03-17T11:46:00.530Z,93.90
2018-03-17T11:48:28.910Z,94.40
2018-03-17T11:50:57.255Z,93.70
2018-03-17T11:53:26.977Z,93.50
2018-03-17T11:55:55.332Z,93.50
2018-03-17T11:58:24.686Z,93.10
2018-03-17T12:00:52.952Z,92.70
2018-03-17T12:03:21.321Z,93.00
2018-03-17T12:05:50.543Z,93.30
2018-03-17T12:08:19.490Z,92.80
2018-03-17T12:10:47.723Z,93.00
2018-03-17T12:13:16.002Z,92.60
2018-03-17T12:15:44.255Z,92.50
2018-03-17T12:18:12.545Z,92.90
2018-03-17T12:20:41.596Z,92.70
2018-03-17T12:23:10.578Z,92.20
2018-03-17T12:25:40.461Z,92.50
2018-03-17T12:28:08.689Z,92.50
2018-03-17T12:30:36.999Z,92.00
2018-03-17T12:33:05.227Z,91.80
2018-03-17T12:35:35.481Z,92.40
2018-03-17T12:38:03.769Z,92.30
2018-03-17T12:40:32.094Z,91.60
2018-03-17T12:43:00.342Z,91.40
2018-03-17T12:45:28.572Z,91.00
2018-03-17T12:47:57.589Z,91.40
2018-03-17T12:50:26.471Z,91.40
2018-03-17T12:52:54.890Z,91.30
2018-03-17T12:55:24.075Z,90.20
2018-03-17T12:57:52.774Z,90.40
2018-03-17T13:00:21.094Z,90.90
2018-03-17T13:02:50.105Z,90.60
2018-03-17T13:05:18.418Z,90.60
2018-03-17T13:07:46.731Z,90.50
2018-03-17T13:10:16.233Z,90.60
2018-03-17T13:12:44.526Z,90.50
2018-03-17T13:15:12.819Z,90.60
2018-03-17T13:17:41.050Z,90.50
2018-03-17T13:20:09.299Z,90.50
2018-03-17T13:22:49.410Z,89.80
2018-03-17T13:25:18.361Z,89.30
2018-03-17T13:27:58.489Z,89.00
2018-03-17T13:30:26.732Z,90.30
2018-03-17T13:32:58.780Z,89.50
2018-03-17T13:35:42.473Z,88.80
2018-03-17T13:38:10.746Z,88.80
2018-03-17T13:40:47.052Z,88.80
2018-03-17T13:43:15.506Z,89.80
2018-03-17T13:45:43.755Z,88.20
2018-03-17T13:48:12.319Z,88.80
2018-03-17T13:50:40.792Z,89.80
2018-03-17T13:53:09.336Z,88.80
2018-03-17T13:55:37.580Z,89.00
2018-03-17T13:58:05.897Z,88.80
2018-03-17T14:00:34.189Z,89.20
2018-03-17T14:03:02.426Z,88.20
2018-03-17T14:05:31.409Z,88.80
2018-03-17T14:08:00.398Z,88.40
2018-03-17T14:10:29.963Z,89.20
2018-03-17T14:12:58.777Z,89.10
2018-03-17T14:15:27.959Z,88.20
2018-03-17T14:17:57.417Z,88.20
2018-03-17T14:20:25.719Z,87.70
2018-03-17T14:22:54.158Z,88.10
2018-03-17T14:25:23.300Z,88.10
2018-03-17T14:27:51.526Z,88.10
2018-03-17T14:30:20.576Z,88.80
2018-03-17T14:32:48.798Z,88.70
2018-03-17T14:35:17.251Z,88.10
2018-03-17T14:37:46.480Z,88.20
2018-03-17T14:40:15.534Z,87.80
2018-03-17T14:42:43.796Z,87.90
2018-03-17T14:45:12.024Z,88.40
2018-03-17T14:47:40.273Z,88.40
2018-03-17T14:50:08.488Z,88.70
2018-03-17T14:52:36.750Z,88.70
2018-03-17T14:55:05.912Z,88.10
2018-03-17T14:57:34.285Z,87.50
2018-03-17T15:00:02.999Z,85.90
2018-03-17T15:02:31.460Z,87.50
2018-03-17T15:04:59.751Z,88.20
2018-03-17T15:07:27.996Z,87.00
2018-03-17T15:09:56.274Z,86.40
2018-03-17T15:12:24.599Z,87.30
2018-03-17T15:14:53.778Z,87.20
2018-03-17T15:17:22.154Z,87.10
2018-03-17T15:19:50.427Z,85.50
2018-03-17T15:22:18.805Z,86.20
2018-03-17T15:24:47.074Z,84.70
2018-03-17T15:27:15.345Z,84.30
2018-03-17T15:29:43.658Z,84.40
2018-03-17T15:32:11.978Z,85.30
2018-03-17T15:34:41.024Z,85.70
2018-03-17T15:37:09.306Z,85.70
2018-03-17T15:39:37.564Z,85.90
2018-03-17T15:42:05.908Z,85.30
2018-03-17T15:44:36.015Z,85.30
2018-03-17T15:47:05.172Z,84.20
2018-03-17T15:49:33.640Z,84.20
2018-03-17T15:52:02.800Z,84.40
2018-03-17T15:54:31.104Z,84.30
2018-03-17T15:56:59.347Z,83.70
2018-03-17T15:59:28.379Z,84.10
2018-03-17T16:01:57.027Z,84.20
2018-03-17T16:04:25.280Z,83.40
2018-03-17T16:06:54.584Z,82.90
2018-03-17T16:09:23.619Z,83.60
2018-03-17T16:11:52.865Z,82.70
2018-03-17T16:14:22.839Z,83.40
2018-03-17T16:16:51.988Z,82.70
2018-03-17T16:19:20.865Z,82.70
2018-03-17T16:21:49.125Z,82.90
2018-03-17T16:24:17.493Z,82.30
2018-03-17T16:26:45.756Z,82.50
2018-03-17T16:29:15.538Z,82.50
2018-03-17T16:31:45.879Z,81.80
2018-03-17T16:34:14.911Z,82.50
2018-03-17T16:36:43.149Z,82.40
2018-03-17T16:39:12.240Z,83.70
2018-03-17T16:41:41.267Z,83.90
2018-03-17T16:44:09.582Z,83.90
2018-03-17T16:46:37.849Z,83.80
2018-03-17T16:49:06.156Z,83.00
2018-03-17T16:51:34.543Z,82.80
2018-03-17T16:54:03.609Z,83.70
2018-03-17T16:56:32.082Z,83.70
2018-03-17T16:59:00.351Z,84.20
2018-03-17T17:01:29.611Z,84.90
2018-03-17T17:03:58.037Z,84.20
2018-03-17T17:06:26.278Z,84.20
2018-03-17T17:08:55.375Z,84.20
2018-03-17T17:11:25.013Z,84.20
2018-03-17T17:13:53.298Z,83.60
2018-03-17T17:16:21.601Z,83.10
2018-03-17T17:18:52.536Z,82.90
2018-03-17T17:21:20.794Z,83.50
2018-03-17T17:23:49.662Z,83.20
2018-03-17T17:26:18.942Z,84.20
2018-03-17T17:28:49.430Z,84.70
2018-03-17T17:31:17.918Z,84.70
2018-03-17T17:33:46.373Z,85.00
2018-03-17T17:36:15.536Z,84.90
2018-03-17T17:38:44.655Z,86.30
2018-03-17T17:41:13.060Z,86.30
2018-03-17T17:43:41.679Z,86.60
2018-03-17T17:46:10.146Z,85.00
2018-03-17T17:48:39.238Z,84.90
2018-03-17T17:51:07.911Z,84.90
2018-03-17T17:53:36.181Z,85.00
2018-03-17T17:56:05.214Z,83.90
2018-03-17T17:58:34.067Z,84.60
2018-03-17T18:01:03.866Z,84.30
2018-03-17T18:03:32.167Z,84.30
2018-03-17T18:06:01.563Z,84.60
2018-03-17T18:08:29.947Z,84.30
2018-03-17T18:11:00.252Z,85.30
2018-03-17T18:13:29.571Z,85.10
2018-03-17T18:15:58.066Z,85.00
2018-03-17T18:18:27.464Z,84.80
2018-03-17T18:20:55.865Z,84.40
2018-03-17T18:23:24.093Z,84.00
2018-03-17T18:25:52.353Z,85.00
2018-03-17T18:28:21.387Z,83.40
2018-03-17T18:30:50.078Z,83.30
2018-03-17T18:33:18.320Z,84.50
2018-03-17T18:35:47.358Z,85.00
2018-03-17T18:38:15.684Z,85.00
2018-03-17T18:40:45.145Z,84.50
2018-03-17T18:43:13.402Z,84.30
2018-03-17T18:45:41.780Z,85.00
2018-03-17T18:48:10.819Z,84.20
2018-03-17T18:50:40.113Z,84.20
2018-03-17T18:53:08.631Z,84.10
2018-03-17T18:55:37.728Z,85.00
2018-03-17T18:58:05.995Z,84.30
2018-03-17T19:00:35.033Z,85.00
2018-03-17T19:03:03.263Z,85.00
2018-03-17T19:05:32.279Z,84.00
2018-03-17T19:08:00.510Z,84.00
2018-03-17T19:10:28.795Z,84.10
2018-03-17T19:12:57.147Z,83.60
2018-03-17T19:15:25.674Z,84.50
2018-03-17T19:17:54.916Z,84.50
2018-03-17T19:20:23.936Z,84.60
2018-03-17T19:22:52.412Z,84.60
2018-03-17T19:25:20.744Z,83.60
2018-03-17T19:27:49.749Z,82.80
2018-03-17T19:30:18.226Z,82.60
2018-03-17T19:32:46.549Z,83.80
2018-03-17T19:35:14.789Z,83.10
2018-03-17T19:37:43.097Z,83.20
2018-03-17T19:40:11.390Z,83.20
2018-03-17T19:42:42.298Z,83.80
2018-03-17T19:45:12.391Z,83.40
2018-03-17T19:47:42.166Z,84.30
2018-03-17T19:50:10.467Z,85.30
2018-03-17T19:52:38.765Z,83.70
2018-03-17T19:55:07.041Z,84.30
2018-03-17T19:57:36.068Z,84.90
2018-03-17T20:00:04.544Z,84.80
2018-03-17T20:02:32.948Z,85.00
2018-03-17T20:05:01.206Z,84.70
2018-03-17T20:07:30.308Z,84.60
2018-03-17T20:09:59.372Z,85.00
2018-03-17T20:12:28.479Z,85.10
2018-03-17T20:14:57.793Z,84.90
2018-03-17T20:17:26.099Z,85.40
2018-03-17T20:19:56.133Z,84.20
2018-03-17T20:22:26.963Z,84.50
2018-03-17T20:24:56.861Z,84.50
2018-03-17T20:27:25.264Z,84.00
2018-03-17T20:29:54.356Z,83.90
2018-03-17T20:32:26.092Z,83.80
2018-03-17T20:34:55.359Z,83.10
2018-03-17T20:37:23.666Z,83.00
2018-03-17T20:39:53.382Z,83.00
2018-03-17T20:42:21.688Z,82.30
2018-03-17T20:44:50.702Z,82.10
2018-03-17T20:47:19.719Z,81.60
2018-03-17T20:49:48.113Z,81.50
2018-03-17T20:52:16.402Z,80.60
2018-03-17T20:54:44.674Z,79.20
2018-03-17T20:57:13.118Z,79.20
2018-03-17T20:59:42.142Z,79.80
2018-03-17T21:02:10.539Z,79.90
2018-03-17T21:04:38.806Z,79.90
2018-03-17T21:07:07.594Z,79.10
2018-03-17T21:09:36.567Z,78.50
2018-03-17T21:12:06.154Z,77.20
2018-03-17T21:14:36.105Z,78.70
2018-03-17T21:17:04.388Z,78.20
2018-03-17T21:19:32.746Z,79.10
2018-03-17T21:22:02.139Z,78.40
2018-03-17T21:24:30.501Z,77.50
2018-03-17T21:26:59.504Z,77.10
2018-03-17T21:29:29.430Z,76.30
2018-03-17T21:31:58.607Z,77.10
2018-03-17T21:34:29.041Z,78.10
2018-03-17T21:37:00.784Z,78.10
2018-03-17T21:39:30.510Z,76.90
2018-03-17T21:41:58.952Z,76.70
2018-03-17T21:44:29.001Z,77.00
2018-03-17T21:47:00.049Z,76.60
2018-03-17T21:49:30.169Z,76.60
2018-03-17T21:52:01.737Z,78.50
2018-03-17T21:54:31.070Z,76.80
2018-03-17T21:56:59.292Z,76.70
2018-03-17T21:59:28.380Z,76.00
2018-03-17T22:01:57.469Z,75.50
2018-03-17T22:04:25.748Z,75.80
2018-03-17T22:06:54.101Z,75.50
2018-03-17T22:09:22.582Z,75.60
2018-03-17T22:11:50.888Z,76.30
2018-03-17T22:14:19.128Z,76.30
2018-03-17T22:16:47.616Z,76.70
2018-03-17T22:19:15.904Z,76.30
2018-03-17T22:21:44.987Z,76.90
2018-03-17T22:24:13.234Z,76.90
2018-03-17T22:26:42.691Z,76.30
2018-03-17T22:29:10.961Z,76.40
2018-03-17T22:31:40.221Z,76.20
2018-03-17T22:34:08.459Z,76.20
2018-03-17T22:36:36.683Z,76.40
2018-03-17T22:39:04.987Z,77.80
2018-03-17T22:41:33.291Z,77.60
2018-03-17T22:44:02.125Z,78.30
2018-03-17T22:46:30.434Z,79.10
2018-03-17T22:48:59.056Z,79.30
2018-03-17T22:51:27.445Z,79.60
2018-03-17T22:53:55.666Z,82.00
2018-03-17T22:56:24.557Z,82.00
2018-03-17T22:58:52.854Z,82.70
2018-03-17T23:01:21.434Z,84.10
2018-03-17T23:03:49.801Z,84.80
2018-03-17T23:06:18.034Z,86.50
2018-03-17T23:08:47.040Z,87.40
2018-03-17T23:11:16.167Z,87.40
2018-03-17T23:13:45.678Z,87.40
2018-03-17T23:16:15.084Z,87.40
2018-03-17T23:18:43.441Z,86.70
2018-03-17T23:21:11.652Z,87.00
2018-03-17T23:23:39.868Z,87.20
2018-03-17T23:26:08.106Z,87.20
2018-03-17T23:28:36.544Z,88.60
2018-03-17T23:31:04.840Z,89.20
2018-03-17T23:33:33.116Z,90.30
2018-03-17T23:36:01.396Z,90.50
2018-03-17T23:38:29.617Z,90.90
2018-03-17T23:40:57.959Z,91.50
2018-03-17T23:43:26.274Z,91.80
2018-03-17T23:45:55.312Z,91.70
2018-03-17T23:48:23.538Z,91.80
2018-03-17T23:50:52.716Z,91.40
2018-03-17T23:53:21.094Z,91.20
2018-03-17T23:55:49.358Z,91.60
2018-03-17T23:58:17.636Z,91.50
